Time;durP1;ratioP1;P1;durP2;ratioP2;P2;SDS_P1;SDS_P2;PMS_P1;PMS_P2;Temp;Humidity;BMP_temperature;BMP_pressure;BME280_temperature;BME280_humidity;BME280_pressure;Samples;Min_cycle;Max_cycle;Signal;HPM_P1;HPM_P2
2021/06/21 00:00:13;;;;;;;;;16.75;16.75;;;;;;;;8824032;40;10804;-61
2021/06/21 00:06:15;;;;;;;;;20.33;20.33;;;;;;;;8824516;40;10682;-61
2021/06/21 00:12:17;;;;;;;;;19.67;19.33;;;;;;;;8823543;40;10761;-61
2021/06/21 00:18:20;;;;;;;;;20.33;19.33;;;;;;;;8823163;40;10286;-62
2021/06/21 00:24:23;;;;;;;;;25.67;25.00;;;;;;;;8823876;40;11204;-61
2021/06/21 00:30:25;;;;;;;;;25.67;20.67;;;;;;;;8822691;40;10081;-61
2021/06/21 00:36:27;;;;;;;;;22.00;19.75;;;;;;;;8823477;40;10958;-61
2021/06/21 00:42:29;;;;;;;;;22.67;21.67;;;;;;;;8823925;40;10155;-60
2021/06/21 00:48:31;;;;;;;;;18.75;17.75;;;;;;;;8823021;40;10984;-61
2021/06/21 00:54:33;;;;;;;;;17.25;15.25;;;;;;;;8823838;40;11324;-61
2021/06/21 01:00:35;;;;;;;;;26.67;19.33;;;;;;;;8822256;40;10640;-61
2021/06/21 01:06:37;;;;;;;;;19.67;18.67;;;;;;;;8823582;40;10454;-60
2021/06/21 01:12:48;;;;;;;;;21.33;20.67;;;;;;;;8810685;40;10783;-60
2021/06/21 01:18:59;;;;;;;;;16.50;16.25;;;;;;;;8825985;40;11006;-60
2021/06/21 01:25:38;;;;;;;;;19.75;18.25;;;;;;;;8821163;40;11646;-60
2021/06/21 01:32:07;;;;;;;;;24.33;23.67;;;;;;;;8820262;40;10444;-61
2021/06/21 01:38:18;;;;;;;;;24.33;22.67;;;;;;;;8821584;40;10197;-61
2021/06/21 01:44:25;;;;;;;;;24.33;23.00;;;;;;;;8821868;40;10305;-60
2021/06/21 01:50:28;;;;;;;;;27.00;24.33;;;;;;;;8823107;40;10374;-60
2021/06/21 01:56:35;;;;;;;;;20.25;20.25;;;;;;;;8821183;40;11525;-61
2021/06/21 02:02:37;;;;;;;;;18.33;16.67;;;;;;;;8822076;40;10172;-62
2021/06/21 02:08:41;;;;;;;;;24.33;18.00;;;;;;;;8823813;40;10025;-60
2021/06/21 02:14:48;;;;;;;;;19.67;17.33;;;;;;;;8826036;40;10051;-61
2021/06/21 02:20:52;;;;;;;;;19.00;17.67;;;;;;;;8825273;40;10085;-60
2021/06/21 02:26:55;;;;;;;;;22.25;19.50;;;;;;;;8824885;40;10875;-60
2021/06/21 02:32:57;;;;;;;;;20.00;20.00;;;;;;;;8825720;40;10239;-61
2021/06/21 02:38:59;;;;;;;;;22.75;20.25;;;;;;;;8824582;40;10842;-61
2021/06/21 02:45:02;;;;;;;;;20.33;19.00;;;;;;;;8800636;40;10691;-61
2021/06/21 02:51:06;;;;;;;;;24.67;20.00;;;;;;;;8824848;40;10658;-62
2021/06/21 02:57:31;;;;;;;;;22.33;20.33;;;;;;;;8824185;40;10494;-61
2021/06/21 03:03:40;;;;;;;;;19.67;19.67;;;;;;;;8823886;40;10627;-60
2021/06/21 03:09:45;;;;;;;;;21.00;19.67;;;;;;;;8825542;40;10479;-62
2021/06/21 03:15:50;;;;;;;;;24.00;22.67;;;;;;;;8825292;40;10670;-61
2021/06/21 03:21:52;;;;;;;;;18.50;18.50;;;;;;;;8823830;40;11530;-61
2021/06/21 03:27:57;;;;;;;;;18.00;17.33;;;;;;;;8824359;40;10050;-61
2021/06/21 03:33:59;;;;;;;;;20.67;18.00;;;;;;;;8824458;40;10510;-60
2021/06/21 03:40:01;;;;;;;;;22.33;20.67;;;;;;;;8824948;40;10199;-62
2021/06/21 03:46:06;;;;;;;;;19.75;19.75;;;;;;;;8824685;40;10837;-60
2021/06/21 03:52:08;;;;;;;;;22.25;19.25;;;;;;;;8823442;40;10875;-61
2021/06/21 03:58:10;;;;;;;;;22.25;19.75;;;;;;;;8823648;40;10859;-62
2021/06/21 04:04:12;;;;;;;;;23.75;21.25;;;;;;;;9852601;23;11077;-58
2021/06/21 04:10:18;;;;;;;;;22.67;22.67;;;;;;;;8824613;40;10704;-57
2021/06/21 04:16:20;;;;;;;;;25.00;22.50;;;;;;;;8822579;40;11533;-58
2021/06/21 04:22:22;;;;;;;;;23.00;22.25;;;;;;;;8825688;40;10795;-58
2021/06/21 04:28:24;;;;;;;;;26.50;20.25;;;;;;;;8827165;40;10930;-59
2021/06/21 04:34:26;;;;;;;;;25.25;22.75;;;;;;;;8824505;40;10925;-59
2021/06/21 04:40:31;;;;;;;;;25.00;24.00;;;;;;;;8824638;40;10869;-59
2021/06/21 04:46:34;;;;;;;;;20.00;19.00;;;;;;;;8824951;40;10861;-59
2021/06/21 04:52:38;;;;;;;;;26.00;22.50;;;;;;;;8824504;40;10839;-60
2021/06/21 04:58:40;;;;;;;;;22.25;21.00;;;;;;;;8825811;40;10828;-59
2021/06/21 05:04:42;;;;;;;;;31.25;26.50;;;;;;;;8824904;40;11034;-59
2021/06/21 05:10:44;;;;;;;;;22.75;21.25;;;;;;;;8824386;40;10833;-59
2021/06/21 05:16:46;;;;;;;;;30.67;25.67;;;;;;;;8825121;40;11053;-58
2021/06/21 05:22:49;;;;;;;;;25.00;23.75;;;;;;;;8824512;40;10733;-59
2021/06/21 05:28:52;;;;;;;;;27.00;24.75;;;;;;;;8824593;40;10923;-58
2021/06/21 05:34:54;;;;;;;;;28.00;28.00;;;;;;;;8824118;40;10855;-59
2021/06/21 05:40:56;;;;;;;;;27.25;24.25;;;;;;;;8334505;40;20002067;-59
2021/06/21 05:46:58;;;;;;;;;24.50;22.25;;;;;;;;8827806;40;10783;-58
2021/06/21 05:53:00;;;;;;;;;24.75;23.50;;;;;;;;8828228;40;10739;-59
2021/06/21 05:59:02;;;;;;;;;16.25;16.25;;;;;;;;8829370;40;10441;-59
2021/06/21 06:05:05;;;;;;;;;16.25;15.50;;;;;;;;8827536;40;10589;-59
2021/06/21 06:11:07;;;;;;;;;21.25;18.50;;;;;;;;8827825;40;10596;-59
2021/06/21 06:17:09;;;;;;;;;20.75;18.00;;;;;;;;8828776;40;10489;-60
2021/06/21 06:23:11;;;;;;;;;21.75;19.75;;;;;;;;8828057;40;10506;-59
2021/06/21 06:29:14;;;;;;;;;25.00;20.00;;;;;;;;8827540;40;10470;-60
2021/06/21 06:35:16;;;;;;;;;15.25;15.00;;;;;;;;8827872;40;10561;-58
2021/06/21 06:41:20;;;;;;;;;13.50;13.50;;;;;;;;8827500;40;10652;-59
2021/06/21 06:47:21;;;;;;;;;13.00;11.00;;;;;;;;8828632;40;10484;-58
2021/06/21 06:53:34;;;;;;;;;11.00;10.75;;;;;;;;8826625;40;10421;-58
2021/06/21 06:59:38;;;;;;;;;9.75;9.75;;;;;;;;8826347;40;10753;-57
2021/06/21 07:05:42;;;;;;;;;13.00;13.00;;;;;;;;8824437;40;10694;-58
2021/06/21 07:11:46;;;;;;;;;14.00;13.25;;;;;;;;8824143;40;11809;-58
2021/06/21 07:17:48;;;;;;;;;11.25;11.25;;;;;;;;8823242;40;10473;-60
2021/06/21 07:23:50;;;;;;;;;11.75;11.50;;;;;;;;8823394;40;10404;-59
2021/06/21 07:29:53;;;;;;;;;9.50;8.50;;;;;;;;8833071;40;10310;-59
2021/06/21 07:35:59;;;;;;;;;10.50;10.50;;;;;;;;8823817;40;10666;-58
2021/06/21 07:42:01;;;;;;;;;16.25;16.00;;;;;;;;8823164;40;10551;-58
2021/06/21 07:48:04;;;;;;;;;17.50;14.50;;;;;;;;8823264;40;10603;-57
2021/06/21 07:54:06;;;;;;;;;12.00;11.00;;;;;;;;8823453;40;10553;-60
2021/06/21 08:00:08;;;;;;;;;9.75;9.75;;;;;;;;8822775;40;10428;-59
2021/06/21 08:06:13;;;;;;;;;9.00;9.00;;;;;;;;8823111;40;10357;-59
2021/06/21 08:12:15;;;;;;;;;8.50;8.50;;;;;;;;8822866;40;10370;-61
2021/06/21 08:18:18;;;;;;;;;7.50;6.25;;;;;;;;8822601;40;10377;-59
2021/06/21 08:24:20;;;;;;;;;12.75;12.00;;;;;;;;8823935;40;10542;-59
2021/06/21 08:30:22;;;;;;;;;8.00;7.75;;;;;;;;8823020;40;10330;-59
2021/06/21 08:36:24;;;;;;;;;12.25;8.75;;;;;;;;8821879;40;10543;-60
2021/06/21 08:42:26;;;;;;;;;10.25;9.75;;;;;;;;8822583;40;10452;-59
2021/06/21 08:48:30;;;;;;;;;9.25;9.00;;;;;;;;8823029;40;10442;-60
2021/06/21 08:54:34;;;;;;;;;10.00;8.25;;;;;;;;8822894;40;10376;-58
2021/06/21 09:00:36;;;;;;;;;8.25;8.25;;;;;;;;8821935;40;10335;-58
2021/06/21 09:06:39;;;;;;;;;10.00;10.00;;;;;;;;8822820;40;10480;-59
2021/06/21 09:12:41;;;;;;;;;11.50;11.50;;;;;;;;8822022;40;10493;-60
2021/06/21 09:18:43;;;;;;;;;3.75;3.00;;;;;;;;8822027;40;10957;-59
2021/06/21 09:24:45;;;;;;;;;10.50;10.50;;;;;;;;8822564;40;10380;-59
2021/06/21 09:30:50;;;;;;;;;11.00;10.75;;;;;;;;8822422;40;10485;-59
2021/06/21 09:36:54;;;;;;;;;11.00;10.00;;;;;;;;8823707;40;10512;-59
2021/06/21 09:42:58;;;;;;;;;11.50;11.50;;;;;;;;8821722;40;10359;-59
2021/06/21 09:49:00;;;;;;;;;10.00;10.00;;;;;;;;8821178;40;10362;-60
2021/06/21 09:55:28;;;;;;;;;12.25;11.00;;;;;;;;8821489;40;10470;-59
2021/06/21 10:01:30;;;;;;;;;14.25;12.25;;;;;;;;8820454;40;10388;-58
2021/06/21 10:07:36;;;;;;;;;13.75;13.75;;;;;;;;8819798;40;10856;-59
2021/06/21 10:13:38;;;;;;;;;15.50;15.25;;;;;;;;8820364;40;10444;-59
2021/06/21 10:19:40;;;;;;;;;13.25;11.25;;;;;;;;8819792;40;10471;-59
2021/06/21 10:25:42;;;;;;;;;12.75;11.00;;;;;;;;8820294;40;10459;-59
2021/06/21 10:31:45;;;;;;;;;14.00;14.00;;;;;;;;8821959;40;10558;-59
2021/06/21 10:37:59;;;;;;;;;14.50;11.75;;;;;;;;8823623;40;10480;-59
2021/06/21 10:44:01;;;;;;;;;15.75;14.00;;;;;;;;8823411;40;10466;-60
2021/06/21 10:50:19;;;;;;;;;15.75;14.50;;;;;;;;8823675;40;10467;-59
2021/06/21 10:56:48;;;;;;;;;21.00;19.75;;;;;;;;8825596;40;10643;-61
2021/06/21 11:02:50;;;;;;;;;21.25;21.25;;;;;;;;8823970;40;10448;-59
2021/06/21 11:08:56;;;;;;;;;14.00;14.00;;;;;;;;8824961;40;10467;-59
2021/06/21 11:15:08;;;;;;;;;16.00;16.00;;;;;;;;8824392;40;10540;-59
2021/06/21 11:21:19;;;;;;;;;15.00;15.00;;;;;;;;8825085;40;10504;-59
2021/06/21 11:27:23;;;;;;;;;24.25;24.25;;;;;;;;8822576;40;10497;-59
2021/06/21 11:33:54;;;;;;;;;23.00;19.75;;;;;;;;8823366;40;10528;-59
2021/06/21 11:40:15;;;;;;;;;24.50;21.50;;;;;;;;8822792;40;10485;-60
2021/06/21 11:46:44;;;;;;;;;16.50;15.50;;;;;;;;8823763;40;10522;-59
2021/06/21 11:52:47;;;;;;;;;23.75;23.00;;;;;;;;8823576;40;10738;-59
2021/06/21 11:58:51;;;;;;;;;17.00;17.00;;;;;;;;8823057;40;10537;-59
2021/06/21 12:04:54;;;;;;;;;15.00;15.00;;;;;;;;8822745;40;10535;-59
2021/06/21 12:10:56;;;;;;;;;20.25;18.00;;;;;;;;8823518;40;10546;-60
2021/06/21 12:17:04;;;;;;;;;22.75;21.00;;;;;;;;8824038;40;10490;-58
2021/06/21 12:23:11;;;;;;;;;15.75;15.00;;;;;;;;8822733;40;10511;-59
2021/06/21 12:29:22;;;;;;;;;22.75;20.50;;;;;;;;8822644;40;10554;-58
2021/06/21 12:35:24;;;;;;;;;16.00;15.25;;;;;;;;8822405;40;11175;-59
2021/06/21 12:41:32;;;;;;;;;14.50;13.50;;;;;;;;8824151;40;10849;-58
2021/06/21 12:47:34;;;;;;;;;15.00;15.00;;;;;;;;8823564;40;11135;-60
2021/06/21 12:53:43;;;;;;;;;19.00;19.00;;;;;;;;8822087;40;10548;-59
2021/06/21 12:59:49;;;;;;;;;16.75;16.00;;;;;;;;8838322;40;10504;-59
2021/06/21 13:05:58;;;;;;;;;15.00;15.00;;;;;;;;8823324;40;10419;-59
2021/06/21 13:12:02;;;;;;;;;14.75;14.75;;;;;;;;8823429;40;10513;-59
2021/06/21 13:18:04;;;;;;;;;19.25;18.25;;;;;;;;8822718;40;10566;-60
2021/06/21 13:24:09;;;;;;;;;19.00;18.25;;;;;;;;8822213;40;10494;-61
2021/06/21 13:30:40;;;;;;;;;16.25;16.25;;;;;;;;8823118;40;10460;-60
2021/06/21 13:36:58;;;;;;;;;18.75;16.75;;;;;;;;8819811;40;10518;-61
2021/06/21 13:43:01;;;;;;;;;26.25;23.25;;;;;;;;8822836;40;10559;-59
2021/06/21 13:49:06;;;;;;;;;16.25;15.00;;;;;;;;8822310;40;10583;-61
2021/06/21 13:55:10;;;;;;;;;7.50;7.25;;;;;;;;8821501;40;10412;-60
2021/06/21 14:01:19;;;;;;;;;16.75;16.75;;;;;;;;8820828;40;10536;-60
2021/06/21 14:07:21;;;;;;;;;20.50;18.00;;;;;;;;8825374;40;10535;-59
2021/06/21 14:13:24;;;;;;;;;10.50;9.00;;;;;;;;8825470;40;10349;-59
2021/06/21 14:19:26;;;;;;;;;18.50;18.50;;;;;;;;8824808;40;10467;-58
2021/06/21 14:25:29;;;;;;;;;15.75;15.75;;;;;;;;8825424;40;10488;-60
2021/06/21 14:31:33;;;;;;;;;13.50;13.50;;;;;;;;8824408;40;10449;-60
2021/06/21 14:37:36;;;;;;;;;17.50;15.25;;;;;;;;8572972;40;10001138;-59
2021/06/21 14:43:39;;;;;;;;;19.75;17.00;;;;;;;;8840356;40;14154;-60
2021/06/21 14:49:42;;;;;;;;;16.25;16.25;;;;;;;;8824182;40;10627;-61
2021/06/21 14:55:44;;;;;;;;;13.00;13.00;;;;;;;;8823853;40;10537;-59
2021/06/21 15:01:48;;;;;;;;;16.50;16.50;;;;;;;;8824566;40;10491;-59
2021/06/21 15:07:51;;;;;;;;;15.00;13.00;;;;;;;;8824966;40;11036;-59
2021/06/21 15:13:55;;;;;;;;;17.25;14.25;;;;;;;;8824746;40;10432;-60
2021/06/21 15:19:57;;;;;;;;;11.75;11.25;;;;;;;;8823450;40;10498;-59
2021/06/21 15:25:59;;;;;;;;;8.75;8.75;;;;;;;;8823397;40;10344;-59
2021/06/21 15:32:01;;;;;;;;;9.50;9.50;;;;;;;;8822627;40;10454;-59
2021/06/21 15:38:04;;;;;;;;;13.75;13.00;;;;;;;;8824572;40;10533;-59
2021/06/21 15:44:06;;;;;;;;;10.25;10.25;;;;;;;;8823620;40;10391;-60
2021/06/21 15:50:10;;;;;;;;;11.00;10.75;;;;;;;;8840198;40;10435;-60
2021/06/21 15:56:13;;;;;;;;;9.00;7.75;;;;;;;;8823152;40;10464;-58
2021/06/21 16:02:15;;;;;;;;;10.00;10.00;;;;;;;;8823903;40;10424;-59
2021/06/21 16:08:18;;;;;;;;;10.00;9.25;;;;;;;;8824096;40;10418;-60
2021/06/21 16:14:20;;;;;;;;;13.25;11.50;;;;;;;;8822742;40;10602;-59
2021/06/21 16:20:22;;;;;;;;;15.00;13.75;;;;;;;;8814144;40;10434;-59
2021/06/21 16:26:24;;;;;;;;;9.75;9.00;;;;;;;;8822848;40;10351;-59
2021/06/21 16:32:28;;;;;;;;;13.00;13.00;;;;;;;;8830666;40;10418;-60
2021/06/21 16:38:33;;;;;;;;;16.75;15.00;;;;;;;;8822396;40;11021;-59
2021/06/21 16:44:35;;;;;;;;;13.00;13.00;;;;;;;;8822205;40;10481;-59
2021/06/21 16:50:38;;;;;;;;;17.50;15.00;;;;;;;;8821416;40;10546;-59
2021/06/21 16:56:40;;;;;;;;;21.25;18.75;;;;;;;;8822888;40;10983;-60
2021/06/21 17:02:42;;;;;;;;;19.25;18.25;;;;;;;;8822046;40;10484;-61
2021/06/21 17:08:44;;;;;;;;;21.25;18.50;;;;;;;;8821960;40;10531;-58
2021/06/21 17:14:45;;;;;;;;;17.00;15.00;;;;;;;;8822148;40;10474;-60
2021/06/21 17:20:48;;;;;;;;;19.25;16.75;;;;;;;;8822724;40;10472;-59
2021/06/21 17:26:49;;;;;;;;;22.75;18.75;;;;;;;;8820329;40;10494;-59
2021/06/21 17:32:52;;;;;;;;;16.75;15.00;;;;;;;;8822347;40;10409;-59
2021/06/21 17:38:54;;;;;;;;;18.75;18.75;;;;;;;;8824835;40;10495;-59
2021/06/21 17:44:57;;;;;;;;;17.50;16.75;;;;;;;;8830992;40;10471;-59
2021/06/21 17:50:59;;;;;;;;;19.75;19.25;;;;;;;;8830392;40;10495;-59
2021/06/21 17:57:01;;;;;;;;;20.75;19.25;;;;;;;;8834748;40;10491;-60
2021/06/21 18:03:05;;;;;;;;;18.25;18.25;;;;;;;;8829126;40;10518;-59
2021/06/21 18:09:07;;;;;;;;;28.50;26.75;;;;;;;;8829387;40;10512;-62
2021/06/21 18:15:13;;;;;;;;;17.50;16.75;;;;;;;;8831155;40;10611;-63
2021/06/21 18:21:17;;;;;;;;;21.75;18.50;;;;;;;;8829155;40;12287;-60
2021/06/21 18:27:19;;;;;;;;;32.00;30.75;;;;;;;;8828101;40;10769;-59
2021/06/21 18:33:21;;;;;;;;;32.00;30.00;;;;;;;;8828877;40;10739;-59
2021/06/21 18:39:23;;;;;;;;;37.25;32.75;;;;;;;;8828767;40;10936;-58
2021/06/21 18:45:25;;;;;;;;;41.00;37.00;;;;;;;;8828920;40;10917;-59
2021/06/21 18:51:27;;;;;;;;;33.75;32.50;;;;;;;;8841292;40;10941;-59
2021/06/21 18:57:29;;;;;;;;;37.75;36.75;;;;;;;;8824254;40;10891;-59
2021/06/21 19:03:31;;;;;;;;;40.50;36.50;;;;;;;;8824170;40;10986;-59
2021/06/21 19:09:33;;;;;;;;;41.00;36.00;;;;;;;;8824537;40;11121;-61
2021/06/21 19:15:36;;;;;;;;;40.75;35.50;;;;;;;;8839333;40;10942;-59
2021/06/21 19:21:39;;;;;;;;;33.00;32.00;;;;;;;;8824081;40;10525;-59
2021/06/21 19:27:41;;;;;;;;;36.33;32.33;;;;;;;;8823166;40;10485;-59
2021/06/21 19:33:44;;;;;;;;;38.00;34.50;;;;;;;;8822704;40;10932;-59
2021/06/21 19:39:46;;;;;;;;;38.25;34.00;;;;;;;;8823442;40;10910;-58
2021/06/21 19:45:49;;;;;;;;;34.50;33.75;;;;;;;;8821837;40;12107;-59
2021/06/21 19:51:51;;;;;;;;;26.00;25.75;;;;;;;;8822659;40;10833;-60
2021/06/21 19:58:01;;;;;;;;;30.75;27.75;;;;;;;;8821307;40;11102;-60
2021/06/21 20:04:19;;;;;;;;;32.25;29.25;;;;;;;;8821291;40;10938;-60
2021/06/21 20:10:26;;;;;;;;;29.00;26.75;;;;;;;;8822204;40;10833;-60
2021/06/21 20:16:28;;;;;;;;;27.75;24.25;;;;;;;;8822410;40;10855;-59
2021/06/21 20:22:30;;;;;;;;;27.25;25.75;;;;;;;;8823074;40;10869;-59
2021/06/21 20:28:32;;;;;;;;;26.00;25.75;;;;;;;;8822823;40;10846;-59
2021/06/21 20:34:43;;;;;;;;;24.75;23.50;;;;;;;;8822642;40;10719;-59
2021/06/21 20:40:46;;;;;;;;;28.00;28.00;;;;;;;;8822279;40;10965;-59
2021/06/21 20:46:48;;;;;;;;;27.75;26.50;;;;;;;;8823049;40;11042;-59
2021/06/21 20:52:51;;;;;;;;;29.75;27.75;;;;;;;;8822719;40;10830;-60
2021/06/21 20:58:53;;;;;;;;;34.00;31.33;;;;;;;;8821731;40;10704;-58
2021/06/21 21:04:55;;;;;;;;;31.50;27.50;;;;;;;;8821416;40;10852;-59
2021/06/21 21:10:56;;;;;;;;;37.00;34.00;;;;;;;;8820923;40;10909;-59
2021/06/21 21:16:59;;;;;;;;;29.75;28.75;;;;;;;;8800207;40;10890;-58
2021/06/21 21:23:01;;;;;;;;;34.50;33.50;;;;;;;;8821087;40;11376;-58
2021/06/21 21:29:03;;;;;;;;;30.67;29.00;;;;;;;;8820319;40;10638;-59
2021/06/21 21:35:06;;;;;;;;;32.00;29.67;;;;;;;;8820447;40;10463;-59
2021/06/21 21:41:08;;;;;;;;;35.00;31.50;;;;;;;;8821199;40;11841;-58
2021/06/21 21:47:10;;;;;;;;;32.50;31.75;;;;;;;;8820127;40;11233;-59
2021/06/21 21:53:12;;;;;;;;;36.67;31.67;;;;;;;;8820404;40;10382;-59
2021/06/21 21:59:14;;;;;;;;;33.67;30.00;;;;;;;;8826554;40;9989;-58
2021/06/21 22:05:17;;;;;;;;;28.67;27.00;;;;;;;;8835419;40;10650;-58
2021/06/21 22:11:20;;;;;;;;;36.00;31.50;;;;;;;;8819796;40;11009;-59
2021/06/21 22:17:22;;;;;;;;;32.00;32.00;;;;;;;;8819265;40;10507;-59
2021/06/21 22:23:24;;;;;;;;;33.00;31.33;;;;;;;;8819435;40;10772;-59
2021/06/21 22:29:26;;;;;;;;;31.00;29.00;;;;;;;;8816932;40;10617;-59
2021/06/21 22:35:28;;;;;;;;;32.67;31.33;;;;;;;;8822959;40;10192;-58
2021/06/21 22:41:30;;;;;;;;;43.33;34.33;;;;;;;;8824199;40;10279;-58
2021/06/21 22:47:32;;;;;;;;;32.00;27.00;;;;;;;;8823058;40;10174;-58
2021/06/21 22:53:34;;;;;;;;;29.33;23.00;;;;;;;;8823027;40;11144;-59
2021/06/21 22:59:36;;;;;;;;;19.75;19.50;;;;;;;;8822650;40;11076;-59
2021/06/21 23:05:38;;;;;;;;;24.00;24.00;;;;;;;;8822316;40;10334;-59
2021/06/21 23:11:40;;;;;;;;;26.33;25.33;;;;;;;;8822011;40;10034;-58
2021/06/21 23:17:42;;;;;;;;;25.33;21.67;;;;;;;;8822987;40;10399;-58
2021/06/21 23:23:45;;;;;;;;;22.33;22.33;;;;;;;;8823203;40;10012;-58
2021/06/21 23:29:47;;;;;;;;;26.33;25.00;;;;;;;;8820815;40;10085;-59
2021/06/21 23:35:49;;;;;;;;;27.00;25.67;;;;;;;;8822879;40;10574;-59
2021/06/21 23:41:51;;;;;;;;;25.67;22.67;;;;;;;;8823290;40;10156;-58
2021/06/21 23:47:54;;;;;;;;;28.33;24.67;;;;;;;;8823765;40;11335;-58
2021/06/21 23:53:56;;;;;;;;;28.67;28.67;;;;;;;;8822901;40;10489;-58
2021/06/21 23:59:58;;;;;;;;;25.00;25.00;;;;;;;;8822644;40;10415;-58
